KPMH/PMH METAR and TAF weather

Enter ICAO airport designator
Station Type Date Time Source
KPMH METAR 2024/04/18 07:02 UTC NOAA

KPMH 180702Z AUTO 00000KT 10SM CLR 14/01 A3001 RMK AO2


Station Type Date Time Source
KPMH Decoded METAR 2024/04/18 07:02 UTC NOAA

Station name not available
Apr 18, 2024 - 03:02 AM EDT / 2024.04.18 0702 UTC
Wind: Calm:0
Visibility: 10 mile(s):0
Sky conditions: clear
Temperature: 57 F (14 C)
Dew Point: 33 F (1 C)
Relative Humidity: 41%
Pressure (altimeter): 30.01 in. Hg (1016 hPa)
ob: KPMH 180702Z AUTO 00000KT 10SM CLR 14/01 A3001 RMK AO2
cycle: 7

Station Type Date Time Source
KPMH TAF UTC NOAA

Error!

Example: see airport list